createdAt,value
2018-09-19T00:02:21.044Z,1.40
2018-09-19T00:04:49.215Z,1.23
2018-09-19T00:07:17.298Z,1.40
2018-09-19T00:09:45.411Z,1.43
2018-09-19T00:12:14.016Z,1.40
2018-09-19T00:14:42.199Z,1.10
2018-09-19T00:17:10.266Z,1.20
2018-09-19T00:19:38.350Z,1.10
2018-09-19T00:22:06.488Z,1.70
2018-09-19T00:24:34.567Z,1.60
2018-09-19T00:27:02.646Z,1.37
2018-09-19T00:29:30.706Z,1.17
2018-09-19T00:31:58.838Z,1.60
2018-09-19T00:34:27.258Z,1.00
2018-09-19T00:36:55.367Z,1.23
2018-09-19T00:39:23.441Z,1.30
2018-09-19T00:41:51.567Z,1.80
2018-09-19T00:44:19.762Z,1.67
2018-09-19T00:46:47.868Z,1.53
2018-09-19T00:49:15.954Z,1.33
2018-09-19T00:51:44.080Z,1.50
2018-09-19T00:54:12.177Z,1.63
2018-09-19T00:56:40.687Z,1.53
2018-09-19T00:59:08.729Z,1.50
2018-09-19T01:01:36.836Z,1.40
2018-09-19T01:04:04.934Z,1.60
2018-09-19T01:06:33.049Z,1.47
2018-09-19T01:09:01.194Z,2.03
2018-09-19T01:11:29.285Z,1.27
2018-09-19T01:13:57.353Z,2.13
2018-09-19T01:16:25.477Z,1.87
2018-09-19T01:18:54.147Z,1.30
2018-09-19T01:21:22.290Z,1.63
2018-09-19T01:23:50.386Z,1.50
2018-09-19T01:26:18.561Z,1.97
2018-09-19T01:28:46.708Z,1.50
2018-09-19T01:31:14.788Z,2.10
2018-09-19T01:33:42.924Z,1.50
2018-09-19T01:36:11.014Z,1.63
2018-09-19T01:38:39.115Z,1.60
2018-09-19T01:41:07.261Z,1.70
2018-09-19T01:43:35.331Z,1.60
2018-09-19T01:46:03.669Z,2.03
2018-09-19T01:48:31.778Z,1.43
2018-09-19T01:50:59.915Z,1.53
2018-09-19T01:53:28.044Z,1.50
2018-09-19T01:55:56.115Z,1.60
2018-09-19T01:58:24.239Z,1.93
2018-09-19T02:00:52.374Z,1.70
2018-09-19T02:03:20.474Z,1.43
2018-09-19T02:05:48.556Z,1.60
2018-09-19T02:08:16.611Z,1.77
2018-09-19T02:10:44.700Z,1.63
2018-09-19T02:13:12.816Z,1.80
2018-09-19T02:15:40.938Z,1.30
2018-09-19T02:18:09.040Z,1.90
2018-09-19T02:20:37.201Z,1.30
2018-09-19T02:23:05.409Z,1.53
2018-09-19T02:25:33.537Z,1.70
2018-09-19T02:28:01.811Z,2.00
2018-09-19T02:30:29.951Z,1.60
2018-09-19T02:32:58.355Z,1.97
2018-09-19T02:35:26.446Z,2.30
2018-09-19T02:37:54.595Z,1.60
2018-09-19T02:40:22.705Z,1.80
2018-09-19T02:42:50.774Z,1.50
2018-09-19T02:45:18.945Z,1.67
2018-09-19T02:47:47.005Z,1.50
2018-09-19T02:50:15.127Z,1.60
2018-09-19T02:52:43.222Z,1.40
2018-09-19T02:55:11.333Z,1.90
2018-09-19T02:57:39.621Z,1.77
2018-09-19T03:00:07.780Z,1.70
2018-09-19T03:02:35.918Z,1.70
2018-09-19T03:05:04.012Z,1.80
2018-09-19T03:07:32.155Z,1.60
2018-09-19T03:10:00.280Z,1.97
2018-09-19T03:12:28.390Z,1.80
2018-09-19T03:14:56.440Z,1.63
2018-09-19T03:17:24.655Z,1.80
2018-09-19T03:19:52.657Z,1.60
2018-09-19T03:22:20.754Z,2.00
2018-09-19T03:24:48.913Z,2.00
2018-09-19T03:27:17.085Z,2.07
2018-09-19T03:29:45.225Z,1.70
2018-09-19T03:32:13.378Z,2.03
2018-09-19T03:34:41.539Z,1.77
2018-09-19T03:37:09.683Z,1.90
2018-09-19T03:39:37.763Z,1.97
2018-09-19T03:42:05.880Z,1.70
2018-09-19T03:44:33.951Z,2.13
2018-09-19T03:47:02.050Z,1.73
2018-09-19T03:49:30.227Z,1.70
2018-09-19T03:51:58.307Z,1.97
2018-09-19T03:54:26.423Z,1.73
2018-09-19T03:56:54.497Z,2.03
2018-09-19T03:59:22.721Z,1.60
2018-09-19T04:01:51.114Z,1.73
2018-09-19T04:04:19.213Z,2.00
2018-09-19T04:06:47.283Z,1.67
2018-09-19T04:09:15.378Z,1.53
2018-09-19T04:11:43.478Z,2.00
2018-09-19T04:14:12.296Z,1.87
2018-09-19T04:16:40.790Z,1.70
2018-09-19T04:19:08.937Z,2.40
2018-09-19T04:21:41.303Z,1.53
2018-09-19T04:24:09.382Z,1.93
2018-09-19T04:26:37.486Z,2.30
2018-09-19T04:29:05.594Z,1.80
2018-09-19T04:31:33.665Z,2.17
2018-09-19T04:34:01.742Z,1.97
2018-09-19T04:36:29.850Z,1.73
2018-09-19T04:38:58.056Z,2.00
2018-09-19T04:41:26.138Z,1.90
2018-09-19T04:43:54.321Z,1.70
2018-09-19T04:46:22.426Z,2.30
2018-09-19T04:48:50.520Z,2.00
2018-09-19T04:51:18.836Z,1.77
2018-09-19T04:53:46.858Z,2.00
2018-09-19T04:56:14.976Z,2.10
2018-09-19T04:58:43.106Z,2.63
2018-09-19T05:01:11.268Z,2.03
2018-09-19T05:03:39.334Z,2.10
2018-09-19T05:06:07.517Z,1.93
2018-09-19T05:08:35.629Z,2.27
2018-09-19T05:11:03.762Z,2.10
2018-09-19T05:13:31.834Z,2.17
2018-09-19T05:15:59.914Z,2.13
2018-09-19T05:18:28.009Z,2.40
2018-09-19T05:20:56.149Z,2.00
2018-09-19T05:23:24.323Z,2.63
2018-09-19T05:25:52.434Z,2.07
2018-09-19T05:28:20.614Z,2.47
2018-09-19T05:30:48.791Z,2.57
2018-09-19T05:33:16.882Z,1.83
2018-09-19T05:35:45.003Z,1.97
2018-09-19T05:38:13.200Z,2.03
2018-09-19T05:40:41.318Z,1.87
2018-09-19T05:43:09.434Z,2.20
2018-09-19T05:45:37.554Z,2.23
2018-09-19T05:48:05.701Z,2.30
2018-09-19T05:50:33.772Z,1.87
2018-09-19T05:53:01.904Z,2.40
2018-09-19T05:55:29.983Z,1.90
2018-09-19T05:57:58.173Z,2.47
2018-09-19T06:00:26.315Z,2.33
2018-09-19T06:02:54.600Z,2.33
2018-09-19T06:05:22.719Z,2.23
2018-09-19T06:07:50.829Z,2.23
2018-09-19T06:10:18.900Z,2.23
2018-09-19T06:12:47.054Z,2.17
2018-09-19T06:15:15.122Z,2.60
2018-09-19T06:17:43.222Z,2.50
2018-09-19T06:20:11.325Z,2.83
2018-09-19T06:22:39.418Z,2.90
2018-09-19T06:25:07.594Z,2.53
2018-09-19T06:27:35.686Z,2.80
2018-09-19T06:30:03.753Z,3.13
2018-09-19T06:32:31.831Z,2.93
2018-09-19T06:34:59.910Z,3.23
2018-09-19T06:37:27.975Z,2.50
2018-09-19T06:39:56.133Z,2.50
2018-09-19T06:42:24.225Z,2.57
2018-09-19T06:44:52.528Z,2.80
2018-09-19T06:47:20.706Z,2.80
2018-09-19T06:49:48.845Z,3.10
2018-09-19T06:52:16.974Z,2.83
2018-09-19T06:54:45.082Z,3.73
2018-09-19T06:57:13.188Z,3.00
2018-09-19T06:59:41.310Z,3.97
2018-09-19T07:02:09.374Z,2.83
2018-09-19T07:04:37.492Z,3.33
2018-09-19T07:07:05.527Z,2.93
2018-09-19T07:09:33.672Z,3.03
2018-09-19T07:12:01.783Z,3.20
2018-09-19T07:14:29.880Z,3.07
2018-09-19T07:16:57.946Z,2.93
2018-09-19T07:19:26.062Z,3.67
2018-09-19T07:21:54.128Z,3.80
2018-09-19T07:24:22.209Z,3.90
2018-09-19T07:26:50.446Z,3.80
2018-09-19T07:29:18.586Z,3.50
2018-09-19T07:31:46.736Z,3.73
2018-09-19T07:34:14.797Z,3.33
2018-09-19T07:36:42.942Z,3.40
2018-09-19T07:39:11.834Z,3.07
2018-09-19T07:41:39.939Z,4.03
2018-09-19T07:44:08.174Z,2.53
2018-09-19T07:46:36.394Z,3.23
2018-09-19T07:49:04.604Z,3.53
2018-09-19T07:51:32.655Z,3.67
2018-09-19T07:54:00.746Z,3.23
2018-09-19T07:56:28.834Z,3.63
2018-09-19T07:58:57.014Z,3.93
2018-09-19T08:01:25.125Z,3.67
2018-09-19T08:03:53.212Z,3.90
2018-09-19T08:06:21.287Z,3.77
2018-09-19T08:08:49.382Z,3.93
2018-09-19T08:11:17.605Z,3.63
2018-09-19T08:13:45.728Z,3.50
2018-09-19T08:16:13.865Z,3.47
2018-09-19T08:18:42.134Z,2.77
2018-09-19T08:21:10.274Z,3.33
2018-09-19T08:23:38.318Z,3.17
2018-09-19T08:26:06.445Z,3.20
2018-09-19T08:28:34.510Z,3.13
2018-09-19T08:31:02.674Z,3.10
2018-09-19T08:33:30.811Z,2.77
2018-09-19T08:35:59.000Z,4.33
2018-09-19T08:38:27.089Z,3.40
2018-09-19T08:40:55.218Z,3.20
2018-09-19T08:43:23.288Z,3.43
2018-09-19T08:45:51.346Z,4.27
2018-09-19T08:48:19.499Z,3.70
2018-09-19T08:50:47.629Z,3.23
2018-09-19T08:53:15.656Z,3.60
2018-09-19T08:55:44.401Z,3.70
2018-09-19T08:58:12.521Z,4.03
2018-09-19T09:00:40.922Z,3.10
2018-09-19T09:03:09.034Z,3.37
2018-09-19T09:05:37.095Z,3.77
2018-09-19T09:08:05.248Z,2.80
2018-09-19T09:10:33.355Z,3.40
2018-09-19T09:13:01.475Z,3.47
2018-09-19T09:15:29.591Z,2.80
2018-09-19T09:17:57.677Z,2.93
2018-09-19T09:20:25.793Z,3.03
2018-09-19T09:22:53.919Z,3.47
2018-09-19T09:25:22.025Z,3.13
2018-09-19T09:27:50.205Z,2.93
2018-09-19T09:30:18.369Z,2.70
2018-09-19T09:32:46.524Z,3.63
2018-09-19T09:35:15.606Z,3.13
2018-09-19T09:37:46.172Z,2.67
2018-09-19T09:40:14.278Z,2.53
2018-09-19T09:42:42.336Z,3.13
2018-09-19T09:45:10.698Z,3.70
2018-09-19T09:47:38.955Z,3.60
2018-09-19T09:50:07.210Z,3.27
2018-09-19T09:52:35.353Z,2.93
2018-09-19T09:55:03.452Z,3.43
2018-09-19T09:57:31.470Z,3.30
2018-09-19T09:59:59.562Z,3.90
2018-09-19T10:02:27.683Z,3.27
2018-09-19T10:04:55.759Z,3.27
2018-09-19T10:07:23.858Z,3.23
2018-09-19T10:09:51.982Z,3.53
2018-09-19T10:12:20.119Z,3.03
2018-09-19T10:14:48.246Z,3.27
2018-09-19T10:17:16.360Z,3.40
2018-09-19T10:19:44.678Z,2.63
2018-09-19T10:22:12.805Z,3.33
2018-09-19T10:24:41.517Z,3.30
2018-09-19T10:27:09.622Z,3.10
2018-09-19T10:29:37.754Z,4.37
2018-09-19T10:32:05.839Z,4.07
2018-09-19T10:34:33.928Z,2.93
2018-09-19T10:37:02.062Z,3.87
2018-09-19T10:39:30.248Z,3.73
2018-09-19T10:41:58.415Z,3.07
2018-09-19T10:44:26.600Z,3.13
2018-09-19T10:46:54.716Z,3.00
2018-09-19T10:49:22.834Z,2.70
2018-09-19T10:51:50.978Z,2.80
2018-09-19T10:54:19.066Z,3.67
2018-09-19T10:56:47.242Z,2.77
2018-09-19T10:59:15.318Z,2.80
2018-09-19T11:01:43.403Z,2.70
2018-09-19T11:04:11.480Z,2.50
2018-09-19T11:06:39.555Z,2.90
2018-09-19T11:09:09.461Z,2.43
2018-09-19T11:11:37.906Z,2.40
2018-09-19T11:14:05.975Z,2.80
2018-09-19T11:16:34.258Z,2.63
2018-09-19T11:19:02.326Z,2.07
2018-09-19T11:21:30.522Z,2.50
2018-09-19T11:23:58.582Z,2.60
2018-09-19T11:26:26.935Z,2.17
2018-09-19T11:28:55.001Z,2.63
2018-09-19T11:31:23.078Z,2.73
2018-09-19T11:33:51.167Z,2.60
2018-09-19T11:36:19.247Z,2.43
2018-09-19T11:38:47.379Z,2.40
2018-09-19T11:41:15.426Z,2.00
2018-09-19T11:43:43.571Z,2.23
2018-09-19T11:46:11.663Z,2.27
2018-09-19T11:48:39.784Z,2.30
2018-09-19T11:51:07.822Z,2.33
2018-09-19T11:53:35.902Z,2.10
2018-09-19T11:56:03.974Z,2.57
2018-09-19T11:58:32.078Z,2.40
2018-09-19T12:01:00.169Z,2.40
2018-09-19T12:03:28.801Z,2.70
2018-09-19T12:05:56.962Z,2.50
2018-09-19T12:08:25.112Z,2.40
2018-09-19T12:10:53.242Z,2.27
2018-09-19T12:13:21.330Z,3.00
2018-09-19T12:15:49.428Z,2.60
2018-09-19T12:18:17.528Z,2.67
2018-09-19T12:20:45.675Z,2.37
2018-09-19T12:23:13.784Z,2.60
2018-09-19T12:25:41.843Z,2.57
2018-09-19T12:28:09.985Z,3.40
2018-09-19T12:30:38.074Z,2.90
2018-09-19T12:33:06.143Z,2.93
2018-09-19T12:35:34.347Z,2.53
2018-09-19T12:38:02.522Z,2.57
2018-09-19T12:40:30.662Z,2.30
2018-09-19T12:42:58.791Z,2.73
2018-09-19T12:45:26.906Z,2.90
2018-09-19T12:47:55.060Z,2.97
2018-09-19T12:50:23.156Z,2.47
2018-09-19T12:52:51.246Z,2.60
2018-09-19T12:55:19.404Z,2.90
2018-09-19T12:57:47.466Z,2.73
2018-09-19T13:00:15.600Z,2.40
2018-09-19T13:02:46.394Z,2.83
2018-09-19T13:05:14.506Z,2.83
2018-09-19T13:07:42.602Z,3.00
2018-09-19T13:10:10.667Z,3.43
2018-09-19T13:12:38.754Z,2.80
2018-09-19T13:15:06.854Z,3.00
2018-09-19T13:17:35.015Z,3.83
2018-09-19T13:20:03.795Z,3.17
2018-09-19T13:22:31.893Z,2.83
2018-09-19T13:24:59.998Z,2.80
2018-09-19T13:27:28.180Z,2.60
2018-09-19T13:29:56.248Z,2.53
2018-09-19T13:32:24.416Z,2.53
2018-09-19T13:34:52.478Z,2.37
2018-09-19T13:37:20.586Z,2.67
2018-09-19T13:39:48.678Z,3.00
2018-09-19T13:42:16.826Z,3.13
2018-09-19T13:44:44.909Z,3.10
2018-09-19T13:47:12.978Z,3.77
2018-09-19T13:49:52.602Z,2.70
2018-09-19T13:52:20.682Z,3.20
2018-09-19T13:54:48.786Z,2.40
2018-09-19T13:57:16.870Z,2.47
2018-09-19T13:59:44.933Z,2.70
2018-09-19T14:02:13.047Z,3.07
2018-09-19T14:04:41.758Z,3.30
2018-09-19T14:07:09.858Z,2.87
2018-09-19T14:09:37.926Z,2.53
2018-09-19T14:12:06.079Z,2.83
2018-09-19T14:14:34.130Z,2.27
2018-09-19T14:17:02.246Z,2.77
2018-09-19T14:19:30.338Z,2.50
2018-09-19T14:21:58.438Z,2.10
2018-09-19T14:24:26.505Z,2.83
2018-09-19T14:26:54.582Z,3.10
2018-09-19T14:29:22.707Z,3.07
2018-09-19T14:31:50.811Z,2.53
2018-09-19T14:34:18.915Z,2.83
2018-09-19T14:36:46.987Z,2.97
2018-09-19T14:39:15.107Z,2.93
2018-09-19T14:41:43.174Z,3.27
2018-09-19T14:44:11.307Z,2.80
2018-09-19T14:46:39.394Z,2.60
2018-09-19T14:49:07.529Z,2.90
2018-09-19T14:51:35.892Z,2.57
2018-09-19T14:54:04.015Z,2.63
2018-09-19T14:56:32.055Z,2.43
2018-09-19T14:59:00.155Z,2.10
2018-09-19T15:01:28.254Z,2.47
2018-09-19T15:03:56.345Z,2.17
2018-09-19T15:06:24.417Z,2.73
2018-09-19T15:08:52.500Z,2.50
2018-09-19T15:11:20.618Z,2.50
2018-09-19T15:13:48.743Z,2.00
2018-09-19T15:16:16.806Z,2.80
2018-09-19T15:18:44.896Z,2.40
2018-09-19T15:21:12.995Z,2.40
2018-09-19T15:23:41.074Z,2.20
2018-09-19T15:26:09.160Z,2.33
2018-09-19T15:28:37.297Z,2.33
2018-09-19T15:31:05.358Z,2.53
2018-09-19T15:33:33.462Z,2.63
2018-09-19T15:36:01.608Z,2.60
2018-09-19T15:38:29.741Z,2.50
2018-09-19T15:40:57.753Z,2.73
2018-09-19T15:43:25.858Z,2.30
2018-09-19T15:45:53.938Z,2.90
2018-09-19T15:48:22.115Z,2.50
2018-09-19T15:50:50.200Z,2.50
2018-09-19T15:53:18.310Z,2.23
2018-09-19T15:55:46.467Z,2.93
2018-09-19T15:58:14.566Z,2.70
2018-09-19T16:00:42.657Z,2.30
2018-09-19T16:03:10.742Z,2.80
2018-09-19T16:05:38.894Z,2.47
2018-09-19T16:08:06.933Z,2.93
2018-09-19T16:10:35.367Z,2.40
2018-09-19T16:13:03.489Z,2.73
2018-09-19T16:15:32.322Z,2.70
2018-09-19T16:18:00.541Z,2.70
2018-09-19T16:20:28.622Z,2.67
2018-09-19T16:22:56.710Z,2.77
2018-09-19T16:25:24.806Z,2.40
2018-09-19T16:27:52.867Z,2.73
2018-09-19T16:30:20.947Z,2.20
2018-09-19T16:32:49.239Z,3.20
2018-09-19T16:35:18.770Z,2.40
2018-09-19T16:37:48.460Z,2.37
2018-09-19T16:40:17.001Z,2.40
2018-09-19T16:42:45.104Z,2.53
2018-09-19T16:45:14.244Z,2.13
2018-09-19T16:47:42.908Z,2.20
2018-09-19T16:50:11.623Z,2.50
2018-09-19T16:52:40.040Z,2.57
2018-09-19T16:55:08.720Z,2.90
2018-09-19T16:57:37.394Z,2.20
2018-09-19T17:00:08.025Z,2.47
2018-09-19T17:02:36.655Z,2.63
2018-09-19T17:05:05.107Z,2.33
2018-09-19T17:07:33.634Z,2.63
2018-09-19T17:10:01.712Z,2.90
2018-09-19T17:12:29.807Z,2.50
2018-09-19T17:14:57.923Z,2.30
2018-09-19T17:17:26.032Z,2.63
2018-09-19T17:19:54.130Z,2.63
2018-09-19T17:22:22.243Z,2.17
2018-09-19T17:24:50.342Z,2.20
2018-09-19T17:27:18.763Z,2.33
2018-09-19T17:29:46.945Z,2.70
2018-09-19T17:32:15.832Z,2.37
2018-09-19T17:34:43.978Z,3.10
2018-09-19T17:37:12.056Z,2.47
2018-09-19T17:39:40.133Z,2.47
2018-09-19T17:42:08.222Z,2.17
2018-09-19T17:44:36.294Z,3.23
2018-09-19T17:47:04.386Z,2.63
2018-09-19T17:49:32.961Z,2.60
2018-09-19T17:52:01.067Z,2.30
2018-09-19T17:54:29.127Z,2.00
2018-09-19T17:56:57.204Z,2.80
2018-09-19T17:59:25.292Z,2.37
2018-09-19T18:01:53.364Z,2.10
2018-09-19T18:04:21.482Z,2.60
2018-09-19T18:06:49.727Z,2.07
2018-09-19T18:09:17.841Z,2.67
2018-09-19T18:11:45.895Z,2.37
2018-09-19T18:14:13.982Z,2.87
2018-09-19T18:16:42.072Z,2.53
2018-09-19T18:19:10.277Z,2.17
2018-09-19T18:21:38.407Z,2.50
2018-09-19T18:24:06.514Z,2.57
2018-09-19T18:26:34.712Z,2.83
2018-09-19T18:29:02.831Z,2.70
2018-09-19T18:31:30.940Z,2.40
2018-09-19T18:33:59.225Z,2.43
2018-09-19T18:36:27.368Z,2.53
2018-09-19T18:38:55.847Z,2.37
2018-09-19T18:41:23.941Z,1.90
2018-09-19T18:43:52.316Z,2.43
2018-09-19T18:46:20.518Z,2.60
2018-09-19T18:48:49.015Z,2.30
2018-09-19T18:51:17.124Z,1.97
2018-09-19T18:53:45.308Z,2.03
2018-09-19T18:56:13.626Z,1.90
2018-09-19T18:58:41.767Z,2.47
2018-09-19T19:01:09.927Z,2.10
2018-09-19T19:03:38.055Z,1.93
2018-09-19T19:06:06.208Z,2.37
2018-09-19T19:08:34.711Z,2.40
2018-09-19T19:11:02.779Z,2.07
2018-09-19T19:13:30.875Z,1.97
2018-09-19T19:15:59.001Z,1.77
2018-09-19T19:18:27.063Z,2.23
2018-09-19T19:20:55.248Z,1.40
2018-09-19T19:23:23.511Z,2.03
2018-09-19T19:25:51.602Z,2.20
2018-09-19T19:28:19.727Z,1.93
2018-09-19T19:30:47.944Z,1.80
2018-09-19T19:33:16.112Z,2.17
2018-09-19T19:35:44.427Z,2.13
2018-09-19T19:38:12.822Z,2.33
2018-09-19T19:40:40.891Z,1.90
2018-09-19T19:43:09.061Z,2.03
2018-09-19T19:45:37.182Z,1.53
2018-09-19T19:48:05.329Z,2.23
2018-09-19T19:50:33.925Z,1.70
2018-09-19T19:53:02.126Z,2.20
2018-09-19T19:55:30.631Z,2.13
2018-09-19T19:57:58.770Z,1.80
2018-09-19T20:00:26.846Z,2.20
2018-09-19T20:02:55.272Z,1.83
2018-09-19T20:05:23.374Z,1.83
2018-09-19T20:07:51.482Z,2.27
2018-09-19T20:10:19.702Z,2.37
2018-09-19T20:12:48.245Z,2.43
2018-09-19T20:15:16.345Z,2.50
2018-09-19T20:17:44.512Z,1.87
2018-09-19T20:20:12.610Z,2.33
2018-09-19T20:22:40.745Z,2.27
2018-09-19T20:25:08.851Z,2.20
2018-09-19T20:27:36.958Z,2.40
2018-09-19T20:30:05.338Z,2.10
2018-09-19T20:32:33.388Z,1.77
2018-09-19T20:35:01.470Z,2.93
2018-09-19T20:37:29.617Z,2.00
2018-09-19T20:39:58.438Z,1.70
2018-09-19T20:42:27.694Z,1.87
2018-09-19T20:44:55.854Z,2.27
2018-09-19T20:47:23.962Z,2.03
2018-09-19T20:49:52.035Z,2.13
2018-09-19T20:52:21.047Z,2.00
2018-09-19T20:54:49.115Z,2.33
2018-09-19T20:57:17.245Z,2.10
2018-09-19T20:59:45.451Z,2.87
2018-09-19T21:02:13.593Z,2.17
2018-09-19T21:04:41.694Z,2.40
2018-09-19T21:07:09.810Z,1.80
2018-09-19T21:09:37.894Z,2.97
2018-09-19T21:12:06.942Z,2.13
2018-09-19T21:14:35.701Z,2.27
2018-09-19T21:17:03.810Z,2.13
2018-09-19T21:19:32.354Z,2.30
2018-09-19T21:22:00.540Z,2.23
2018-09-19T21:24:28.591Z,2.33
2018-09-19T21:26:56.706Z,2.60
2018-09-19T21:29:24.794Z,1.97
2018-09-19T21:31:52.870Z,2.60
2018-09-19T21:34:20.959Z,1.80
2018-09-19T21:36:49.090Z,2.43
2018-09-19T21:39:17.238Z,2.00
2018-09-19T21:41:45.343Z,2.43
2018-09-19T21:44:13.454Z,2.37
2018-09-19T21:46:41.522Z,2.30
2018-09-19T21:49:09.595Z,2.47
2018-09-19T21:51:37.667Z,1.90
2018-09-19T21:54:05.747Z,2.70
2018-09-19T21:56:33.881Z,2.50
2018-09-19T21:59:01.977Z,2.63
2018-09-19T22:01:35.686Z,2.27
2018-09-19T22:04:03.804Z,2.03
2018-09-19T22:06:31.891Z,2.13
2018-09-19T22:08:59.957Z,2.33
2018-09-19T22:11:28.090Z,2.23
2018-09-19T22:13:56.170Z,2.53
2018-09-19T22:16:24.276Z,2.03
2018-09-19T22:18:52.343Z,1.97
2018-09-19T22:21:20.427Z,2.10
2018-09-19T22:23:48.535Z,2.30
2018-09-19T22:26:16.673Z,1.80
2018-09-19T22:28:44.742Z,2.20
2018-09-19T22:31:12.863Z,2.10
2018-09-19T22:33:40.974Z,1.80
2018-09-19T22:36:09.070Z,2.10
2018-09-19T22:38:37.177Z,2.40
2018-09-19T22:41:05.419Z,2.10
2018-09-19T22:43:33.770Z,2.20
2018-09-19T22:46:02.159Z,2.07
2018-09-19T22:48:30.226Z,1.97
2018-09-19T22:50:58.350Z,2.17
2018-09-19T22:53:26.452Z,2.30
2018-09-19T22:55:54.534Z,2.53
2018-09-19T22:58:22.686Z,2.10
2018-09-19T23:00:50.783Z,2.23
2018-09-19T23:03:18.945Z,2.50
2018-09-19T23:05:47.036Z,2.27
2018-09-19T23:08:16.035Z,2.10
2018-09-19T23:10:44.387Z,2.17
2018-09-19T23:13:13.279Z,2.07
2018-09-19T23:15:42.167Z,2.47
2018-09-19T23:18:10.294Z,2.50
2018-09-19T23:20:38.535Z,2.20
2018-09-19T23:23:06.574Z,2.57
2018-09-19T23:25:34.658Z,2.13
2018-09-19T23:28:03.073Z,2.63
2018-09-19T23:30:31.222Z,2.00
2018-09-19T23:32:59.351Z,2.37
2018-09-19T23:35:27.462Z,2.37
2018-09-19T23:37:55.597Z,2.57
2018-09-19T23:40:23.755Z,2.00
2018-09-19T23:42:51.900Z,2.20
2018-09-19T23:45:20.034Z,2.80
2018-09-19T23:47:48.130Z,2.63
2018-09-19T23:50:16.207Z,2.50
2018-09-19T23:52:44.344Z,2.60
2018-09-19T23:55:12.435Z,2.23
2018-09-19T23:57:40.586Z,2.43
